createdAt,value
2017-07-14T00:00:28.417Z,0
2017-07-14T00:01:28.735Z,0
2017-07-14T00:02:28.458Z,0
2017-07-14T00:03:28.475Z,0
2017-07-14T00:04:43.411Z,0
2017-07-14T00:05:28.848Z,0
2017-07-14T00:06:28.887Z,0
2017-07-14T00:07:43.173Z,0
2017-07-14T00:08:28.608Z,0
2017-07-14T00:09:28.942Z,0
2017-07-14T00:10:28.650Z,0
2017-07-14T00:11:43.572Z,0
2017-07-14T00:12:29.017Z,0
2017-07-14T00:13:29.035Z,0
2017-07-14T00:14:28.751Z,0
2017-07-14T00:15:28.751Z,0
2017-07-14T00:16:28.800Z,0
2017-07-14T00:17:29.123Z,0
2017-07-14T00:18:28.831Z,0
2017-07-14T00:19:28.873Z,0
2017-07-14T00:20:29.199Z,0
2017-07-14T00:21:28.892Z,0
2017-07-14T00:22:28.592Z,0
2017-07-14T00:23:43.223Z,0
2017-07-14T00:24:28.661Z,0
2017-07-14T00:25:29.299Z,0
2017-07-14T00:27:29.039Z,0
2017-07-14T00:28:43.969Z,0
2017-07-14T00:29:29.389Z,0
2017-07-14T00:30:29.106Z,0
2017-07-14T00:31:29.446Z,0
2017-07-14T00:32:29.154Z,0
2017-07-14T00:33:29.523Z,0
2017-07-14T00:34:29.551Z,0
2017-07-14T00:35:44.152Z,0
2017-07-14T00:36:29.553Z,0
2017-07-14T00:37:43.870Z,0
2017-07-14T00:38:29.612Z,0
2017-07-14T00:39:29.648Z,0
2017-07-14T00:40:29.664Z,0
2017-07-14T00:41:29.360Z,0
2017-07-14T00:42:29.714Z,0
2017-07-14T00:43:44.326Z,0
2017-07-14T00:44:29.107Z,0
2017-07-14T00:45:29.776Z,0
2017-07-14T00:46:29.789Z,0
2017-07-14T00:47:29.800Z,0
2017-07-14T00:48:29.857Z,0
2017-07-14T00:49:29.551Z,0
2017-07-14T00:50:29.623Z,0
2017-07-14T00:51:29.946Z,0
2017-07-14T00:52:29.954Z,0
2017-07-14T00:53:44.551Z,0
2017-07-14T00:54:44.571Z,0
2017-07-14T00:55:30.005Z,0
2017-07-14T00:56:29.704Z,0
2017-07-14T00:57:30.056Z,0
2017-07-14T00:58:30.067Z,0
2017-07-14T00:59:58.975Z,0
2017-07-14T01:00:29.837Z,0
2017-07-14T01:01:30.132Z,0
2017-07-14T01:02:29.829Z,0
2017-07-14T01:03:30.192Z,0
2017-07-14T01:04:30.215Z,0
2017-07-14T01:05:30.228Z,0
2017-07-14T01:06:30.238Z,0
2017-07-14T01:07:30.269Z,0
2017-07-14T01:08:30.310Z,0
2017-07-14T01:09:30.336Z,0
2017-07-14T01:10:29.710Z,0
2017-07-14T01:11:30.048Z,0
2017-07-14T01:12:30.420Z,0
2017-07-14T01:13:30.426Z,0
2017-07-14T01:14:30.426Z,0
2017-07-14T01:15:44.739Z,0
2017-07-14T01:16:30.472Z,0
2017-07-14T01:17:30.497Z,0
2017-07-14T01:18:30.228Z,0
2017-07-14T01:19:30.558Z,0
2017-07-14T01:20:30.598Z,0
2017-07-14T01:21:30.595Z,0
2017-07-14T01:22:44.580Z,0
2017-07-14T01:23:29.986Z,0
2017-07-14T01:24:30.668Z,0
2017-07-14T01:25:30.676Z,0
2017-07-14T01:26:30.717Z,0
2017-07-14T01:27:30.417Z,0
2017-07-14T01:28:30.435Z,0
2017-07-14T01:29:30.767Z,0
2017-07-14T01:30:30.785Z,0
2017-07-14T01:31:45.105Z,0
2017-07-14T01:32:30.849Z,0
2017-07-14T01:33:30.876Z,0
2017-07-14T01:34:30.873Z,0
2017-07-14T01:35:30.600Z,0
2017-07-14T01:36:30.935Z,0
2017-07-14T01:37:30.644Z,0
2017-07-14T01:38:30.699Z,0
2017-07-14T01:39:31.001Z,0
2017-07-14T01:41:31.065Z,0
2017-07-14T01:43:31.098Z,0
2017-07-14T01:44:31.119Z,0
2017-07-14T01:45:30.832Z,0
2017-07-14T01:46:45.435Z,0
2017-07-14T01:47:45.777Z,0
2017-07-14T01:48:30.577Z,0
2017-07-14T01:49:30.889Z,0
2017-07-14T01:50:31.260Z,0
2017-07-14T01:51:31.272Z,0
2017-07-14T01:52:31.336Z,0
2017-07-14T01:53:31.006Z,0
2017-07-14T01:55:45.957Z,0
2017-07-14T01:56:45.992Z,0
2017-07-14T01:57:31.086Z,0
2017-07-14T01:58:31.431Z,0
2017-07-14T01:59:46.043Z,0
2017-07-14T02:00:30.855Z,0
2017-07-14T02:01:31.191Z,0
2017-07-14T02:03:31.549Z,0
2017-07-14T02:04:31.575Z,0
2017-07-14T02:05:31.266Z,0
2017-07-14T02:06:46.226Z,0
2017-07-14T02:07:31.622Z,0
2017-07-14T02:08:31.653Z,0
2017-07-14T02:09:31.687Z,0
2017-07-14T02:10:31.697Z,0
2017-07-14T02:11:31.736Z,0
2017-07-14T02:13:31.460Z,0
2017-07-14T02:14:31.466Z,0
2017-07-14T02:15:31.516Z,0
2017-07-14T02:16:31.826Z,0
2017-07-14T02:17:31.875Z,0
2017-07-14T02:18:46.495Z,0
2017-07-14T02:19:31.916Z,0
2017-07-14T02:20:31.602Z,4
2017-07-14T02:21:31.933Z,4
2017-07-14T02:23:31.046Z,0
2017-07-14T02:24:31.717Z,0
2017-07-14T02:25:32.032Z,0
2017-07-14T02:26:32.079Z,4
2017-07-14T02:27:32.078Z,4
2017-07-14T02:28:46.387Z,4
2017-07-14T02:29:46.736Z,4
2017-07-14T02:30:31.845Z,4
2017-07-14T02:31:31.863Z,8
2017-07-14T02:32:31.579Z,4
2017-07-14T02:33:31.896Z,8
2017-07-14T02:34:46.851Z,8
2017-07-14T02:35:32.268Z,8
2017-07-14T02:36:32.295Z,12
2017-07-14T02:37:31.991Z,12
2017-07-14T02:38:32.014Z,16
2017-07-14T02:39:46.968Z,16
2017-07-14T02:40:32.363Z,16
2017-07-14T02:41:32.094Z,20
2017-07-14T02:42:32.418Z,20
2017-07-14T02:44:47.062Z,32
2017-07-14T02:45:32.163Z,32
2017-07-14T02:46:32.525Z,44
2017-07-14T02:47:32.233Z,44
2017-07-14T02:48:47.161Z,56
2017-07-14T02:51:32.640Z,68
2017-07-14T02:53:32.357Z,76
2017-07-14T02:54:32.677Z,76
2017-07-14T02:55:32.731Z,80
2017-07-14T02:56:32.729Z,80
2017-07-14T02:58:32.451Z,84
2017-07-14T02:59:32.500Z,84
2017-07-14T03:00:32.828Z,88
2017-07-14T03:01:32.841Z,88
2017-07-14T03:02:47.141Z,92
2017-07-14T03:03:32.576Z,96
2017-07-14T03:04:32.896Z,100
2017-07-14T03:05:32.946Z,104
2017-07-14T03:07:02.160Z,124
2017-07-14T03:07:32.988Z,132
2017-07-14T03:08:32.375Z,144
2017-07-14T03:11:33.068Z,176
2017-07-14T03:12:47.699Z,184
2017-07-14T03:13:33.136Z,192
2017-07-14T03:14:47.734Z,208
2017-07-14T03:15:33.175Z,220
2017-07-14T03:16:32.866Z,240
2017-07-14T03:17:33.198Z,264
2017-07-14T03:18:32.277Z,288
2017-07-14T03:19:47.854Z,324
2017-07-14T03:20:32.970Z,348
2017-07-14T03:21:47.892Z,396
2017-07-14T03:22:33.006Z,420
2017-07-14T03:23:32.387Z,452
2017-07-14T03:24:33.373Z,468
2017-07-14T03:25:33.068Z,468
2017-07-14T03:26:33.412Z,468
2017-07-14T03:27:33.431Z,472
2017-07-14T03:28:33.443Z,480
2017-07-14T03:29:33.491Z,488
2017-07-14T03:30:33.187Z,512
2017-07-14T03:31:33.518Z,536
2017-07-14T03:32:32.908Z,556
2017-07-14T03:34:33.598Z,620
2017-07-14T03:35:33.605Z,648
2017-07-14T03:36:33.316Z,688
2017-07-14T03:37:33.332Z,720
2017-07-14T03:38:33.371Z,744
2017-07-14T03:39:48.295Z,780
2017-07-14T03:40:33.718Z,784
2017-07-14T03:41:33.752Z,764
2017-07-14T03:42:33.760Z,728
2017-07-14T03:43:33.791Z,744
2017-07-14T03:45:33.831Z,860
2017-07-14T03:46:33.526Z,948
2017-07-14T03:47:48.475Z,1052
2017-07-14T03:48:33.896Z,1116
2017-07-14T03:49:33.291Z,1204
2017-07-14T03:50:33.636Z,1252
2017-07-14T03:51:33.956Z,1264
2017-07-14T03:52:48.591Z,1296
2017-07-14T03:53:48.304Z,1320
2017-07-14T03:54:34.045Z,1324
2017-07-14T03:55:34.044Z,1300
2017-07-14T03:57:34.080Z,1368
2017-07-14T03:58:34.143Z,1424
2017-07-14T03:59:33.813Z,1492
2017-07-14T04:00:34.170Z,1528
2017-07-14T04:02:34.223Z,1688
2017-07-14T04:03:34.224Z,1784
2017-07-14T04:04:34.236Z,1860
2017-07-14T04:05:34.282Z,1940
2017-07-14T04:06:33.983Z,2040
2017-07-14T04:07:34.335Z,2180
2017-07-14T04:08:34.337Z,2324
2017-07-14T04:09:48.980Z,2436
2017-07-14T04:12:49.060Z,2588
2017-07-14T04:13:34.458Z,2636
2017-07-14T04:14:49.086Z,2672
2017-07-14T04:15:34.495Z,2680
2017-07-14T04:16:34.211Z,2756
2017-07-14T04:17:34.529Z,2872
2017-07-14T04:18:34.260Z,2984
2017-07-14T04:19:49.195Z,3228
2017-07-14T04:21:34.648Z,3572
2017-07-14T04:22:34.037Z,3800
2017-07-14T04:23:33.726Z,4060
2017-07-14T04:24:34.715Z,4320
2017-07-14T04:25:49.324Z,4664
2017-07-14T04:26:34.440Z,4816
2017-07-14T04:27:34.779Z,5028
2017-07-14T04:28:34.469Z,5044
2017-07-14T04:29:34.825Z,5108
2017-07-14T04:30:34.526Z,5452
2017-07-14T04:31:34.877Z,5972
2017-07-14T04:32:34.895Z,6624
2017-07-14T04:33:34.924Z,7540
2017-07-14T04:34:34.925Z,8520
2017-07-14T04:35:34.958Z,9856
2017-07-14T04:36:34.968Z,11332
2017-07-14T04:37:35.005Z,13152
2017-07-14T04:38:35.030Z,13880
2017-07-14T04:39:34.736Z,12228
2017-07-14T04:40:34.745Z,11384
2017-07-14T04:41:49.671Z,12540
2017-07-14T04:42:34.805Z,9696
2017-07-14T04:44:35.171Z,9772
2017-07-14T04:45:34.870Z,8620
2017-07-14T04:46:35.204Z,8716
2017-07-14T04:47:35.273Z,9660
2017-07-14T04:48:34.943Z,8636
2017-07-14T04:49:35.259Z,9144
2017-07-14T04:50:34.674Z,13372
2017-07-14T04:51:34.983Z,15520
2017-07-14T04:52:34.730Z,21632
2017-07-14T04:53:35.054Z,21504
2017-07-14T04:54:35.091Z,25472
2017-07-14T04:55:35.093Z,21216
2017-07-14T04:56:50.051Z,28864
2017-07-14T04:58:34.846Z,8648
2017-07-14T04:59:35.194Z,11288
2017-07-14T05:00:34.908Z,11296
2017-07-14T05:02:35.585Z,7688
2017-07-14T05:03:35.629Z,7560
2017-07-14T05:04:35.306Z,8584
2017-07-14T05:05:35.657Z,8804
2017-07-14T05:06:50.273Z,8664
2017-07-14T05:07:35.386Z,9204
2017-07-14T05:08:50.343Z,12808
2017-07-14T05:09:35.740Z,12664
2017-07-14T05:10:35.785Z,10200
2017-07-14T05:11:35.178Z,10808
2017-07-14T05:12:35.839Z,11172
2017-07-14T05:13:35.852Z,10652
2017-07-14T05:14:35.562Z,10460
2017-07-14T05:15:35.908Z,10636
2017-07-14T05:16:35.918Z,10432
2017-07-14T05:17:35.962Z,9916
2017-07-14T05:19:35.670Z,9544
2017-07-14T05:20:36.038Z,9632
2017-07-14T05:21:36.035Z,10356
2017-07-14T05:22:50.045Z,10388
2017-07-14T05:23:35.138Z,9528
2017-07-14T05:24:35.817Z,9004
2017-07-14T05:25:35.834Z,9456
2017-07-14T05:26:36.175Z,9908
2017-07-14T05:27:36.194Z,10528
2017-07-14T05:28:50.824Z,11524
2017-07-14T05:29:35.929Z,12128
2017-07-14T05:30:50.923Z,9952
2017-07-14T05:31:36.281Z,8532
2017-07-14T05:32:50.908Z,8392
2017-07-14T05:33:36.359Z,7852
2017-07-14T05:34:35.733Z,7280
2017-07-14T05:35:36.411Z,7080
2017-07-14T05:36:36.422Z,7020
2017-07-14T05:37:35.819Z,6996
2017-07-14T05:38:36.146Z,7000
2017-07-14T05:39:36.490Z,6952
2017-07-14T05:40:35.908Z,7132
2017-07-14T05:41:36.559Z,7348
2017-07-14T05:42:36.571Z,7576
2017-07-14T05:43:36.594Z,7804
2017-07-14T05:44:51.220Z,8428
2017-07-14T05:45:36.665Z,9152
2017-07-14T05:46:36.340Z,9712
2017-07-14T05:47:36.068Z,10448
2017-07-14T05:48:36.388Z,10468
2017-07-14T05:49:36.425Z,10820
2017-07-14T05:50:36.759Z,11384
2017-07-14T05:51:36.806Z,14780
2017-07-14T05:52:36.827Z,23104
2017-07-14T05:53:36.529Z,27264
2017-07-14T05:54:36.545Z,37600
2017-07-14T05:55:36.882Z,39776
2017-07-14T05:56:36.925Z,23840
2017-07-14T05:57:36.605Z,20192
2017-07-14T05:58:36.668Z,16096
2017-07-14T05:59:36.992Z,14476
2017-07-14T06:01:36.727Z,17888
2017-07-14T06:02:36.747Z,17280
2017-07-14T06:03:37.099Z,13880
2017-07-14T06:04:37.133Z,12516
2017-07-14T06:05:37.149Z,12008
2017-07-14T06:06:36.845Z,12432
2017-07-14T06:07:36.885Z,13956
2017-07-14T06:08:37.204Z,16512
2017-07-14T06:09:36.936Z,19200
2017-07-14T06:10:36.956Z,18432
2017-07-14T06:11:36.977Z,14344
2017-07-14T06:12:36.991Z,13648
2017-07-14T06:13:37.029Z,14272
2017-07-14T06:14:37.361Z,15864
2017-07-14T06:15:37.079Z,25248
2017-07-14T06:17:37.119Z,49824
2017-07-14T06:18:52.078Z,25184
2017-07-14T06:19:36.867Z,20320
2017-07-14T06:20:37.214Z,30816
2017-07-14T06:21:37.212Z,22176
2017-07-14T06:22:37.464Z,21504
2017-07-14T06:23:37.597Z,31360
2017-07-14T06:24:37.316Z,16864
2017-07-14T06:25:37.651Z,17088
2017-07-14T06:26:37.687Z,18688
2017-07-14T06:27:37.693Z,22208
2017-07-14T06:28:37.746Z,18304
2017-07-14T06:29:52.377Z,19360
2017-07-14T06:30:37.778Z,16256
2017-07-14T06:31:52.096Z,15632
2017-07-14T06:32:37.211Z,15724
2017-07-14T06:33:37.864Z,15660
2017-07-14T06:34:37.887Z,19136
2017-07-14T06:35:51.897Z,19968
2017-07-14T06:36:37.945Z,20896
2017-07-14T06:37:52.576Z,18112
2017-07-14T06:38:37.372Z,15436
2017-07-14T06:39:37.729Z,15984
2017-07-14T06:40:38.050Z,21568
2017-07-14T06:41:38.101Z,25632
2017-07-14T06:42:37.790Z,23200
2017-07-14T06:43:52.742Z,18240
2017-07-14T06:44:37.834Z,19520
2017-07-14T06:45:38.196Z,21632
2017-07-14T06:46:37.911Z,35904
2017-07-14T06:47:37.920Z,39104
2017-07-14T06:49:38.280Z,39392
2017-07-14T06:50:38.026Z,64864
2017-07-14T06:51:38.027Z,49824
2017-07-14T06:52:38.125Z,50560
2017-07-14T06:53:38.083Z,49504
2017-07-14T06:54:38.117Z,53664
2017-07-14T06:55:52.737Z,38080
2017-07-14T06:56:38.473Z,50720
2017-07-14T06:57:38.521Z,37344
2017-07-14T06:58:38.230Z,30240
2017-07-14T06:59:38.593Z,30080
2017-07-14T07:00:38.602Z,35648
2017-07-14T07:01:38.640Z,60576
2017-07-14T07:02:37.707Z,65152
2017-07-14T07:03:53.288Z,80224
2017-07-14T07:04:38.733Z,73632
2017-07-14T07:05:38.445Z,80416
2017-07-14T07:07:53.419Z,63392
2017-07-14T07:08:38.557Z,74816
2017-07-14T07:09:38.614Z,74880
2017-07-14T07:10:38.904Z,78048
2017-07-14T07:11:38.934Z,76000
2017-07-14T07:12:38.941Z,73344
2017-07-14T07:13:38.981Z,73376
2017-07-14T07:14:38.706Z,72640
2017-07-14T07:15:53.344Z,72544
2017-07-14T07:16:38.778Z,73504
2017-07-14T07:17:38.821Z,72960
2017-07-14T07:18:39.145Z,72672
2017-07-14T07:19:53.808Z,71616
2017-07-14T07:20:38.909Z,69536
2017-07-14T07:21:39.270Z,68096
2017-07-14T07:22:38.328Z,68448
2017-07-14T07:23:39.001Z,69664
2017-07-14T07:24:39.080Z,64864
2017-07-14T07:25:39.449Z,64672
2017-07-14T07:26:39.124Z,66848
2017-07-14T07:27:38.823Z,68768
2017-07-14T07:28:39.503Z,67616
2017-07-14T07:30:39.248Z,65728
2017-07-14T07:31:39.594Z,66624
2017-07-14T07:32:39.311Z,66048
2017-07-14T07:33:39.648Z,62688
2017-07-14T07:34:53.993Z,66432
2017-07-14T07:35:54.340Z,64864
2017-07-14T07:36:39.510Z,65824
2017-07-14T07:37:39.518Z,58112
2017-07-14T07:38:39.891Z,63456
2017-07-14T07:39:39.870Z,54560
2017-07-14T07:40:39.278Z,40288
2017-07-14T07:41:54.569Z,44448
2017-07-14T07:42:39.687Z,53408
2017-07-14T07:43:40.052Z,60672
2017-07-14T07:45:40.091Z,55872
2017-07-14T07:46:39.490Z,45792
2017-07-14T07:48:39.908Z,50912
2017-07-14T07:49:40.236Z,63232
2017-07-14T07:50:39.968Z,60576
2017-07-14T07:51:54.901Z,47200
2017-07-14T07:52:40.350Z,55584
2017-07-14T07:53:40.370Z,62144
2017-07-14T07:54:40.098Z,35360
2017-07-14T07:55:40.447Z,52800
2017-07-14T07:56:54.787Z,58816
2017-07-14T07:57:40.191Z,26816
2017-07-14T07:58:39.932Z,35424
2017-07-14T07:59:54.879Z,67520
2017-07-14T08:00:40.633Z,36960
2017-07-14T08:01:40.669Z,55168
2017-07-14T08:02:40.070Z,68608
2017-07-14T08:04:40.431Z,64512
2017-07-14T08:05:54.771Z,66464
2017-07-14T08:06:55.428Z,66400
2017-07-14T08:07:40.577Z,64480
2017-07-14T08:08:40.584Z,62624
2017-07-14T08:09:55.553Z,60832
2017-07-14T08:10:40.974Z,41568
2017-07-14T08:11:41.018Z,39712
2017-07-14T08:12:40.419Z,32384
2017-07-14T08:13:40.452Z,50464
2017-07-14T08:14:55.411Z,43040
2017-07-14T08:15:40.521Z,30816
2017-07-14T08:16:40.575Z,47264
2017-07-14T08:17:55.506Z,35328
2017-07-14T08:18:40.941Z,30720
2017-07-14T08:19:55.895Z,23744
2017-07-14T08:20:41.330Z,20640
2017-07-14T08:21:41.070Z,23296
2017-07-14T08:22:41.091Z,23360
2017-07-14T08:23:40.811Z,25088
2017-07-14T08:24:40.844Z,21888
2017-07-14T08:25:41.183Z,23072
2017-07-14T08:26:41.552Z,24480
2017-07-14T08:27:41.255Z,27264
2017-07-14T08:28:40.978Z,27584
2017-07-14T08:29:41.642Z,24896
2017-07-14T08:30:41.068Z,17664
2017-07-14T08:31:41.750Z,16728
2017-07-14T08:32:41.451Z,16356
2017-07-14T08:33:41.485Z,14732
2017-07-14T08:34:41.505Z,13880
2017-07-14T08:35:41.559Z,13152
2017-07-14T08:36:41.897Z,12772
2017-07-14T08:37:41.942Z,12304
2017-07-14T08:39:42.001Z,10780
2017-07-14T08:40:42.022Z,10028
2017-07-14T08:41:41.747Z,9480
2017-07-14T08:42:56.711Z,8784
2017-07-14T08:43:42.138Z,8340
2017-07-14T08:44:41.868Z,7892
2017-07-14T08:45:41.885Z,7440
2017-07-14T08:46:56.844Z,7184
2017-07-14T08:47:56.860Z,7032
2017-07-14T08:48:56.875Z,6796
2017-07-14T08:49:42.638Z,6768
2017-07-14T08:50:42.369Z,6900
2017-07-14T08:51:56.680Z,7088
2017-07-14T08:52:42.115Z,7288
2017-07-14T08:53:42.130Z,7524
2017-07-14T08:54:57.100Z,7888
2017-07-14T08:55:42.516Z,8072
2017-07-14T08:56:42.238Z,8460
2017-07-14T08:57:42.636Z,9000
2017-07-14T08:58:42.606Z,9540
2017-07-14T08:59:57.258Z,9976
2017-07-14T09:00:42.657Z,10208
2017-07-14T09:01:42.719Z,10612
2017-07-14T09:02:42.089Z,11060
2017-07-14T09:03:42.770Z,11532
2017-07-14T09:04:42.470Z,12228
2017-07-14T09:05:42.521Z,13532
2017-07-14T09:06:42.856Z,13828
2017-07-14T09:07:57.483Z,13060
2017-07-14T09:08:42.595Z,13120
2017-07-14T09:09:42.312Z,13328
2017-07-14T09:10:57.248Z,12000
2017-07-14T09:11:42.370Z,11788
2017-07-14T09:12:43.037Z,11792
2017-07-14T09:13:42.123Z,11588
2017-07-14T09:15:42.804Z,11464
2017-07-14T09:17:42.859Z,10828
2017-07-14T09:18:57.826Z,10128
2017-07-14T09:19:42.605Z,9764
2017-07-14T09:23:42.720Z,9044
2017-07-14T09:24:43.392Z,9084
2017-07-14T09:25:43.088Z,8976
2017-07-14T09:26:58.049Z,8804
2017-07-14T09:27:43.168Z,8732
2017-07-14T09:28:43.502Z,8600
2017-07-14T09:29:43.568Z,8536
2017-07-14T09:30:43.230Z,8560
2017-07-14T09:31:43.606Z,8616
2017-07-14T09:32:42.980Z,8632
2017-07-14T09:33:43.658Z,8716
2017-07-14T09:34:43.670Z,8844
2017-07-14T09:35:57.998Z,9044
2017-07-14T09:36:43.731Z,9176
2017-07-14T09:37:58.362Z,9380
2017-07-14T09:38:43.802Z,9476
2017-07-14T09:39:43.498Z,9608
2017-07-14T09:40:58.493Z,9812
2017-07-14T09:41:57.846Z,9968
2017-07-14T09:42:58.200Z,10132
2017-07-14T09:43:43.658Z,10224
2017-07-14T09:44:43.647Z,10316
2017-07-14T09:45:43.700Z,10440
2017-07-14T09:46:43.711Z,10504
2017-07-14T09:47:43.756Z,10528
2017-07-14T09:48:43.763Z,10552
2017-07-14T09:49:43.793Z,10600
2017-07-14T09:50:43.496Z,10624
2017-07-14T09:51:44.204Z,10768
2017-07-14T09:52:43.881Z,10984
2017-07-14T09:53:44.239Z,11440
2017-07-14T09:54:43.620Z,14008
2017-07-14T09:55:43.670Z,14728
2017-07-14T09:56:43.677Z,13672
2017-07-14T09:57:44.034Z,14252
2017-07-14T09:58:44.375Z,12716
2017-07-14T09:59:44.093Z,12160
2017-07-14T10:00:58.731Z,11644
2017-07-14T10:01:59.047Z,11304
2017-07-14T10:02:59.124Z,10724
2017-07-14T10:03:44.191Z,10560
2017-07-14T10:04:44.554Z,10192
2017-07-14T10:05:44.576Z,9828
2017-07-14T10:06:43.982Z,9648
2017-07-14T10:07:43.743Z,9668
2017-07-14T10:08:44.345Z,10284
2017-07-14T10:09:58.985Z,10008
2017-07-14T10:10:43.753Z,10468
2017-07-14T10:11:59.347Z,11004
2017-07-14T10:12:44.466Z,12044
2017-07-14T10:14:13.696Z,11960
2017-07-14T10:14:44.855Z,11212
2017-07-14T10:15:59.469Z,11100
2017-07-14T10:16:44.900Z,11128
2017-07-14T10:17:44.932Z,11144
2017-07-14T10:18:44.648Z,11072
2017-07-14T10:19:44.981Z,10884
2017-07-14T10:20:45.010Z,10644
2017-07-14T10:21:44.387Z,10288
2017-07-14T10:22:44.127Z,9900
2017-07-14T10:23:44.449Z,9540
2017-07-14T10:24:45.147Z,9216
2017-07-14T10:25:45.145Z,8832
2017-07-14T10:26:45.201Z,8452
2017-07-14T10:27:45.204Z,8148
2017-07-14T10:28:45.251Z,7900
2017-07-14T10:29:59.866Z,7692
2017-07-14T10:30:44.671Z,7628
2017-07-14T10:31:45.028Z,7588
2017-07-14T10:32:44.713Z,7640
2017-07-14T10:33:59.352Z,7684
2017-07-14T10:34:45.078Z,7604
2017-07-14T10:35:45.136Z,7408
2017-07-14T10:36:44.838Z,7272
2017-07-14T10:37:59.786Z,7224
2017-07-14T10:38:45.214Z,7232
2017-07-14T10:39:45.242Z,7172
2017-07-14T10:40:45.257Z,6932
2017-07-14T10:41:45.301Z,6564
2017-07-14T10:42:45.623Z,6180
2017-07-14T10:43:45.357Z,5848
2017-07-14T10:45:59.992Z,5360
2017-07-14T10:46:45.427Z,5284
2017-07-14T10:47:45.781Z,5228
2017-07-14T10:49:00.417Z,5276
2017-07-14T10:49:45.195Z,5332
2017-07-14T10:50:45.543Z,5408
2017-07-14T10:52:00.168Z,5492
2017-07-14T10:52:45.604Z,5548
2017-07-14T10:53:45.627Z,5608
2017-07-14T10:54:45.344Z,5724
2017-07-14T10:56:46.019Z,5784
2017-07-14T10:57:46.052Z,5760
2017-07-14T10:58:46.074Z,5736
2017-07-14T10:59:45.797Z,5716
2017-07-14T11:00:45.815Z,5776
2017-07-14T11:02:00.787Z,5868
2017-07-14T11:02:45.879Z,5940
2017-07-14T11:03:45.592Z,6048
2017-07-14T11:05:00.211Z,6200
2017-07-14T11:05:46.312Z,6332
2017-07-14T11:06:46.309Z,6564
2017-07-14T11:07:46.011Z,6852
2017-07-14T11:09:01.374Z,7208
2017-07-14T11:09:46.056Z,7468
2017-07-14T11:10:46.435Z,7816
2017-07-14T11:12:01.037Z,8132
2017-07-14T11:12:45.837Z,8376
2017-07-14T11:14:46.214Z,8836
2017-07-14T11:16:01.137Z,9156
2017-07-14T11:17:01.182Z,9408
2017-07-14T11:17:46.310Z,9580
2017-07-14T11:18:46.318Z,9828
2017-07-14T11:19:46.670Z,10120
2017-07-14T11:20:46.111Z,10532
2017-07-14T11:21:46.414Z,11056
2017-07-14T11:23:01.028Z,11880
2017-07-14T11:23:46.437Z,11956
2017-07-14T11:24:46.486Z,11968
2017-07-14T11:26:01.452Z,12412
2017-07-14T11:26:46.862Z,12884
2017-07-14T11:27:46.254Z,13500
2017-07-14T11:29:46.926Z,13396
2017-07-14T11:30:46.972Z,14868
2017-07-14T11:31:46.988Z,14296
2017-07-14T11:33:01.632Z,13836
2017-07-14T11:33:46.443Z,14524
2017-07-14T11:35:01.683Z,15336
2017-07-14T11:35:47.128Z,15080
2017-07-14T11:36:46.824Z,17056
2017-07-14T11:38:47.213Z,16640
2017-07-14T11:40:46.945Z,15756
2017-07-14T11:41:47.291Z,15300
2017-07-14T11:43:01.899Z,14856
2017-07-14T11:44:01.950Z,13832
2017-07-14T11:44:47.376Z,13524
2017-07-14T11:45:47.386Z,13832
2017-07-14T11:46:47.403Z,13580
2017-07-14T11:47:47.443Z,13336
2017-07-14T11:49:02.081Z,12952
2017-07-14T11:49:47.199Z,12664
2017-07-14T11:51:02.141Z,12336
2017-07-14T11:51:47.578Z,12036
2017-07-14T11:52:47.599Z,11636
2017-07-14T11:53:47.623Z,11352
2017-07-14T11:54:47.647Z,11092
2017-07-14T11:56:47.079Z,10752
2017-07-14T11:58:02.347Z,10500
2017-07-14T11:59:02.363Z,10288
2017-07-14T11:59:47.155Z,10164
2017-07-14T12:00:47.184Z,10048
2017-07-14T12:01:47.520Z,7636
2017-07-14T12:02:47.573Z,7504
2017-07-14T12:04:01.875Z,7356
2017-07-14T12:05:02.532Z,7536
2017-07-14T12:05:47.327Z,9548
2017-07-14T12:07:02.274Z,9860
2017-07-14T12:07:47.396Z,8268
2017-07-14T12:08:48.054Z,8532
2017-07-14T12:09:47.753Z,10652
2017-07-14T12:10:47.470Z,10800
2017-07-14T12:11:47.485Z,10640
2017-07-14T12:12:48.168Z,10176
2017-07-14T12:13:47.852Z,10208
2017-07-14T12:14:47.601Z,7688
2017-07-14T12:15:47.624Z,10136
2017-07-14T12:17:02.875Z,7488
2017-07-14T12:17:47.973Z,7392
2017-07-14T12:18:47.999Z,9588
2017-07-14T12:19:48.095Z,9532
2017-07-14T12:21:02.977Z,9592
2017-07-14T12:23:02.420Z,9488
2017-07-14T12:23:47.517Z,9420
2017-07-14T12:24:48.501Z,9364
2017-07-14T12:25:48.214Z,9280
2017-07-14T12:27:03.171Z,9172
2017-07-14T12:27:48.272Z,9240
2017-07-14T12:29:03.232Z,7556
2017-07-14T12:29:48.651Z,6684
2017-07-14T12:30:48.683Z,6672
2017-07-14T12:31:48.685Z,6520
2017-07-14T12:33:03.340Z,6460
2017-07-14T12:33:48.787Z,6444
2017-07-14T12:34:48.797Z,6392
2017-07-14T12:35:48.864Z,6424
2017-07-14T12:37:02.812Z,6480
2017-07-14T12:37:48.869Z,6564
2017-07-14T12:38:48.910Z,6656
2017-07-14T12:39:48.620Z,6748
2017-07-14T12:40:48.935Z,6816
2017-07-14T12:41:48.991Z,7088
2017-07-14T12:42:48.378Z,7344
2017-07-14T12:43:49.080Z,7636
2017-07-14T12:44:49.060Z,9060
2017-07-14T12:45:49.111Z,10508
2017-07-14T12:46:49.139Z,10820
2017-07-14T12:47:48.832Z,10144
2017-07-14T12:48:49.194Z,10500
2017-07-14T12:49:49.204Z,11140
2017-07-14T12:50:49.296Z,11100
2017-07-14T12:52:03.543Z,11204
2017-07-14T12:52:49.285Z,11428
2017-07-14T12:53:48.701Z,11600
2017-07-14T12:55:03.957Z,11592
2017-07-14T12:55:49.397Z,11540
2017-07-14T12:56:49.099Z,11368
2017-07-14T12:57:49.130Z,11040
2017-07-14T12:58:49.476Z,11272
2017-07-14T12:59:49.184Z,11396
2017-07-14T13:00:49.581Z,11648
2017-07-14T13:01:49.547Z,11792
2017-07-14T13:02:49.573Z,11644
2017-07-14T13:03:49.618Z,11228
2017-07-14T13:05:04.249Z,10028
2017-07-14T13:05:49.362Z,10768
2017-07-14T13:06:49.676Z,9396
2017-07-14T13:07:49.738Z,8856
2017-07-14T13:08:48.788Z,8364
2017-07-14T13:09:48.839Z,9732
2017-07-14T13:11:03.771Z,7564
2017-07-14T13:11:49.853Z,7728
2017-07-14T13:12:49.935Z,8976
2017-07-14T13:13:49.890Z,7576
2017-07-14T13:14:49.974Z,8144
2017-07-14T13:15:49.629Z,10212
2017-07-14T13:16:49.681Z,9936
2017-07-14T13:18:49.735Z,8408
2017-07-14T13:19:50.087Z,8196
2017-07-14T13:20:49.781Z,9764
2017-07-14T13:21:49.807Z,8888
2017-07-14T13:22:49.202Z,10304
2017-07-14T13:24:04.468Z,8900
2017-07-14T13:25:04.819Z,10364
2017-07-14T13:25:50.254Z,9168
2017-07-14T13:26:50.267Z,7972
2017-07-14T13:27:50.305Z,7772
2017-07-14T13:28:50.351Z,7972
2017-07-14T13:29:50.367Z,7692
2017-07-14T13:30:50.062Z,7576
2017-07-14T13:31:50.413Z,7340
2017-07-14T13:32:50.433Z,7268
2017-07-14T13:33:50.164Z,7260
2017-07-14T13:34:50.508Z,7280
2017-07-14T13:35:50.222Z,8212
2017-07-14T13:36:50.547Z,7392
2017-07-14T13:37:50.276Z,7020
2017-07-14T13:38:50.606Z,6928
2017-07-14T13:40:04.931Z,6968
2017-07-14T13:40:50.669Z,7024
2017-07-14T13:41:50.387Z,7152
2017-07-14T13:42:50.747Z,7312
2017-07-14T13:43:50.449Z,7460
2017-07-14T13:45:05.077Z,7276
2017-07-14T13:46:05.095Z,7164
2017-07-14T13:46:50.201Z,7148
2017-07-14T13:47:50.866Z,7144
2017-07-14T13:48:50.601Z,7156
2017-07-14T13:49:50.938Z,7248
2017-07-14T13:50:50.635Z,7284
2017-07-14T13:51:50.981Z,7340
2017-07-14T13:52:51.025Z,7340
2017-07-14T13:54:05.329Z,7416
2017-07-14T13:54:50.755Z,7468
2017-07-14T13:56:05.691Z,7540
2017-07-14T13:56:50.805Z,9068
2017-07-14T13:57:51.153Z,7240
2017-07-14T13:58:51.195Z,6760
2017-07-14T14:00:05.819Z,6652
2017-07-14T14:00:51.243Z,6676
2017-07-14T14:01:51.270Z,6816
2017-07-14T14:02:51.285Z,8000
2017-07-14T14:03:51.325Z,8368
2017-07-14T14:04:50.719Z,7724
2017-07-14T14:06:51.461Z,7984
2017-07-14T14:07:51.440Z,7192
2017-07-14T14:08:51.474Z,8480
2017-07-14T14:09:51.478Z,7848
2017-07-14T14:11:06.128Z,9924
2017-07-14T14:12:06.145Z,9040
2017-07-14T14:12:51.581Z,9984
2017-07-14T14:13:50.979Z,8624
2017-07-14T14:14:51.619Z,10088